Time;durP1;ratioP1;P1;durP2;ratioP2;P2;SDS_P1;SDS_P2;PMS_P1;PMS_P2;Temp;Humidity;BMP_temperature;BMP_pressure;BME280_temperature;BME280_humidity;BME280_pressure;Samples;Min_cycle;Max_cycle;Signal;HPM_P1;HPM_P2
2021/04/22 00:00:26;;;;;;;9.53;8.00;;;;;;;10.08;67.72;100421.95;1764917;79;21150;-41
2021/04/22 00:02:54;;;;;;;10.63;6.95;;;;;;;10.07;67.78;100420.25;1766269;79;21203;-40
2021/04/22 00:05:37;;;;;;;7.78;6.58;;;;;;;10.05;67.83;100420.33;1763436;79;21135;-40
2021/04/22 00:08:05;;;;;;;7.42;6.55;;;;;;;10.02;67.92;100421.84;1764375;79;21163;-44
2021/04/22 00:10:46;;;;;;;6.75;6.05;;;;;;;9.97;67.97;100423.44;1764073;79;21163;-43
2021/04/22 00:13:15;;;;;;;7.67;6.45;;;;;;;9.94;68.07;100431.61;1764363;79;21138;-41
2021/04/22 00:15:44;;;;;;;7.58;6.70;;;;;;;9.90;68.21;100426.09;1768850;79;21142;-41
2021/04/22 00:18:13;;;;;;;7.05;6.35;;;;;;;9.88;68.28;100436.44;1763058;79;21154;-40
2021/04/22 00:20:41;;;;;;;8.35;7.30;;;;;;;9.86;68.35;100438.33;1767858;79;21170;-40
2021/04/22 00:23:11;;;;;;;9.13;7.45;;;;;;;9.83;68.39;100439.36;1759770;79;21146;-41
2021/04/22 00:25:41;;;;;;;9.53;6.33;;;;;;;9.81;68.42;100432.40;1762820;79;21139;-40
2021/04/22 00:28:10;;;;;;;7.87;6.58;;;;;;;9.78;68.58;100437.88;1759824;79;21167;-40
2021/04/22 00:30:38;;;;;;;7.50;6.55;;;;;;;9.77;68.74;100445.48;1761833;79;21155;-42
2021/04/22 00:33:12;;;;;;;12.07;7.83;;;;;;;9.75;68.83;100437.56;1763163;79;21147;-42
2021/04/22 00:35:40;;;;;;;8.30;6.05;;;;;;;9.75;68.87;100438.45;1762801;79;21150;-42
2021/04/22 00:38:08;;;;;;;9.35;7.58;;;;;;;9.72;68.94;100440.41;1766451;79;21126;-41
2021/04/22 00:40:37;;;;;;;9.75;7.08;;;;;;;9.72;69.02;100434.61;1766240;79;21174;-42
2021/04/22 00:43:08;;;;;;;7.55;6.20;;;;;;;9.72;69.11;100435.08;1764787;79;21142;-42
2021/04/22 00:45:42;;;;;;;6.60;5.90;;;;;;;9.71;69.20;100427.58;1758824;79;21134;-42
2021/04/22 00:48:10;;;;;;;8.15;6.40;;;;;;;9.69;69.32;100436.11;1772648;79;21111;-41
2021/04/22 00:50:40;;;;;;;7.42;6.28;;;;;;;9.68;69.38;100433.55;1740159;79;21130;-43
2021/04/22 00:53:10;;;;;;;8.40;6.47;;;;;;;9.67;69.48;100442.47;1759367;79;21166;-41
2021/04/22 00:55:38;;;;;;;9.48;6.53;;;;;;;9.66;69.61;100446.94;1757341;79;21167;-42
2021/04/22 00:58:06;;;;;;;7.47;6.33;;;;;;;9.64;69.64;100449.30;1762727;79;21289;-42
2021/04/22 01:00:42;;;;;;;7.83;6.10;;;;;;;9.62;69.75;100448.04;1764356;79;21713;-42
2021/04/22 01:03:35;;;;;;;8.30;6.20;;;;;;;9.65;69.79;100449.67;1794658;77;23106;-41
2021/04/22 01:06:04;;;;;;;7.28;5.45;;;;;;;9.62;69.83;100460.50;1725241;82;21645;-41
2021/04/22 01:08:32;;;;;;;8.35;6.78;;;;;;;9.60;69.92;100455.28;1701988;82;21152;-43
2021/04/22 01:10:59;;;;;;;8.88;6.97;;;;;;;9.59;69.94;100451.36;1723051;82;21204;-53
2021/04/22 01:13:27;;;;;;;12.10;7.22;;;;;;;9.57;69.97;100454.09;1733195;81;21184;-43
2021/04/22 01:15:55;;;;;;;10.03;6.65;;;;;;;9.56;69.99;100450.20;1724016;81;21184;-43
2021/04/22 01:18:22;;;;;;;11.50;7.65;;;;;;;9.52;70.00;100457.48;1742654;81;21144;-42
2021/04/22 01:20:52;;;;;;;12.33;7.60;;;;;;;9.47;69.95;100463.05;1743569;81;21179;-42
2021/04/22 01:23:20;;;;;;;8.28;6.62;;;;;;;9.45;69.94;100464.07;1749982;81;21149;-42
2021/04/22 01:25:50;;;;;;;10.25;6.92;;;;;;;9.42;70.00;100459.77;1743567;81;21504;-42
2021/04/22 01:28:20;;;;;;;;;;;;;;;9.41;70.01;100463.87;1728823;81;21238;-44
2021/04/22 01:30:51;;;;;;;11.68;6.78;;;;;;;9.39;70.02;100465.75;1686407;83;20265;-42
2021/04/22 01:33:22;;;;;;;8.68;6.62;;;;;;;9.37;69.90;100468.48;1700937;82;21163;-40
2021/04/22 01:35:52;;;;;;;10.35;7.25;;;;;;;9.31;69.82;100467.01;1714270;81;21141;-42
2021/04/22 01:38:20;;;;;;;9.68;6.92;;;;;;;9.28;69.78;100467.66;1697157;83;21156;-43
2021/04/22 01:40:47;;;;;;;8.58;6.30;;;;;;;9.25;69.83;100466.50;1694869;83;21268;-42
2021/04/22 01:43:17;;;;;;;9.53;6.55;;;;;;;9.23;69.92;100464.38;1689764;83;21220;-43
2021/04/22 01:45:45;;;;;;;9.03;7.62;;;;;;;9.21;70.01;100466.26;1685980;83;21627;-42
2021/04/22 01:48:12;;;;;;;8.25;6.10;;;;;;;9.17;70.06;100459.38;1668192;84;21172;-43
2021/04/22 01:50:41;;;;;;;9.58;6.72;;;;;;;9.14;70.12;100464.86;1702667;82;21156;-42
2021/04/22 01:53:08;;;;;;;9.45;6.92;;;;;;;9.09;70.16;100461.10;1707954;82;21185;-42
2021/04/22 01:55:40;;;;;;;9.95;7.10;;;;;;;9.07;70.17;100460.32;1701286;82;21143;-41
2021/04/22 01:58:11;;;;;;;10.30;7.10;;;;;;;9.05;70.16;100456.91;1701710;82;21230;-41
2021/04/22 02:00:41;;;;;;;8.25;5.90;;;;;;;9.03;70.15;100460.11;1700595;82;21153;-42
2021/04/22 02:03:09;;;;;;;6.45;5.70;;;;;;;9.01;70.12;100456.19;1697760;82;21691;-43
2021/04/22 02:05:37;;;;;;;8.33;6.22;;;;;;;8.97;70.10;100467.06;1690733;83;21184;-45
2021/04/22 02:08:06;;;;;;;6.80;5.53;;;;;;;8.94;70.05;100463.23;1696515;83;21215;-42
2021/04/22 02:10:35;;;;;;;6.42;5.83;;;;;;;8.93;70.05;100456.21;1692014;82;21943;-42
2021/04/22 02:13:04;;;;;;;7.53;5.60;;;;;;;8.91;70.07;100458.94;1717693;81;21161;-42
2021/04/22 02:15:32;;;;;;;7.67;6.08;;;;;;;8.88;70.11;100461.77;1694515;83;21642;-43
2021/04/22 02:18:00;;;;;;;7.92;6.20;;;;;;;8.86;70.17;100463.16;1698817;83;21180;-41
2021/04/22 02:20:27;;;;;;;8.88;6.67;;;;;;;8.85;70.22;100470.77;1700260;83;21165;-41
2021/04/22 02:22:55;;;;;;;7.58;6.15;;;;;;;8.83;70.23;100467.31;1703942;82;22018;-44
2021/04/22 02:25:24;;;;;;;9.05;6.58;;;;;;;8.82;70.13;100472.70;1682410;84;21170;-41
2021/04/22 02:27:52;;;;;;;9.38;6.78;;;;;;;8.77;70.09;100470.30;1706965;82;21174;-40
2021/04/22 02:30:29;;;;;;;8.58;6.58;;;;;;;8.74;70.18;100467.77;1697485;82;21263;-40
2021/04/22 02:32:57;;;;;;;9.73;6.95;;;;;;;8.73;70.27;100463.89;1720734;82;21156;-52
2021/04/22 02:35:28;;;;;;;8.83;6.67;;;;;;;8.74;70.34;100464.27;1695570;82;21181;-47
2021/04/22 02:37:57;;;;;;;10.18;7.78;;;;;;;8.73;70.44;100463.41;1710894;82;21145;-43
2021/04/22 02:40:26;;;;;;;8.28;6.53;;;;;;;8.75;70.55;100464.67;1715150;82;21207;-48
2021/04/22 02:42:55;;;;;;;9.27;7.00;;;;;;;8.76;70.66;100465.05;1705503;82;21196;-55
2021/04/22 02:45:27;;;;;;;9.00;6.42;;;;;;;8.76;70.71;100463.24;1716905;82;21161;-41
2021/04/22 02:47:55;;;;;;;8.80;6.85;;;;;;;8.79;70.95;100464.41;1683921;83;21147;-42
2021/04/22 02:50:25;;;;;;;9.08;6.70;;;;;;;8.82;71.01;100465.61;1680546;84;21244;-41
2021/04/22 02:52:53;;;;;;;8.40;6.90;;;;;;;8.86;70.94;100464.48;1678098;83;21260;-41
2021/04/22 02:55:20;;;;;;;10.00;7.58;;;;;;;8.88;71.02;100462.62;1718717;82;21153;-41
2021/04/22 02:57:50;;;;;;;7.40;6.17;;;;;;;8.90;70.99;100465.69;1689843;83;21168;-41
2021/04/22 03:00:20;;;;;;;10.23;6.47;;;;;;;8.90;71.08;100469.67;1689156;84;21159;-40
2021/04/22 03:02:48;;;;;;;7.70;6.90;;;;;;;8.90;71.06;100473.19;1694133;83;21500;-41
2021/04/22 03:05:17;;;;;;;8.18;6.58;;;;;;;8.90;70.92;100473.19;1691931;84;21184;-42
2021/04/22 03:07:45;;;;;;;8.58;6.80;;;;;;;8.90;70.89;100469.67;1697049;83;21162;-41
2021/04/22 03:10:16;;;;;;;7.85;6.65;;;;;;;8.88;70.81;100477.72;1686528;84;21205;-40
2021/04/22 03:12:43;;;;;;;9.28;7.12;;;;;;;8.86;70.72;100478.27;1715943;82;21165;-43
2021/04/22 03:15:12;;;;;;;7.83;6.78;;;;;;;8.84;70.66;100481.02;1692634;83;21414;-44
2021/04/22 03:17:40;;;;;;;8.88;7.20;;;;;;;8.82;70.56;100482.01;1699903;82;21710;-43
2021/04/22 03:20:09;;;;;;;7.62;6.30;;;;;;;8.80;70.52;100489.23;1705247;82;21212;-41
2021/04/22 03:22:36;;;;;;;8.65;6.97;;;;;;;8.77;70.51;100488.91;1701090;82;21639;-42
2021/04/22 03:25:06;;;;;;;10.20;8.70;;;;;;;8.77;70.55;100497.34;1690695;84;21200;-42
2021/04/22 03:27:33;;;;;;;10.90;8.48;;;;;;;8.76;70.56;100500.47;1696036;83;21150;-42
2021/04/22 03:30:01;;;;;;;9.95;7.35;;;;;;;8.76;70.61;100504.45;1709735;82;21160;-41
2021/04/22 03:32:29;;;;;;;9.75;7.00;;;;;;;8.75;70.60;100505.41;1669452;84;21593;-42
2021/04/22 03:34:56;;;;;;;9.28;7.50;;;;;;;8.72;70.58;100507.34;1690934;83;21633;-43
2021/04/22 03:37:24;;;;;;;8.83;6.92;;;;;;;8.70;70.61;100510.58;1717605;82;21282;-43
2021/04/22 03:39:52;;;;;;;7.15;5.87;;;;;;;8.68;70.69;100517.28;1706682;82;21177;-43
2021/04/22 03:42:20;;;;;;;12.53;7.10;;;;;;;8.66;70.78;100517.83;1686180;82;21576;-44
2021/04/22 03:44:48;;;;;;;7.95;6.70;;;;;;;8.64;70.99;100526.34;1683831;83;21319;-43
2021/04/22 03:47:16;;;;;;;8.65;7.40;;;;;;;8.64;71.23;100525.01;1685828;84;21176;-43
2021/04/22 03:49:44;;;;;;;9.03;6.83;;;;;;;8.64;71.41;100522.35;1682300;84;21157;-42
2021/04/22 03:52:11;;;;;;;7.80;6.53;;;;;;;8.63;71.37;100521.50;1686604;84;21140;-42
2021/04/22 03:54:40;;;;;;;6.85;6.08;;;;;;;8.64;71.68;100527.67;1686301;83;21130;-41
2021/04/22 03:57:08;;;;;;;7.15;6.45;;;;;;;8.67;71.78;100528.87;1673335;83;21188;-46
2021/04/22 03:59:36;;;;;;;8.40;6.70;;;;;;;8.70;71.88;100528.70;1687806;83;21188;-43
2021/04/22 04:02:04;;;;;;;9.90;8.03;;;;;;;8.74;71.84;100537.38;1689769;84;21558;-44
2021/04/22 04:04:32;;;;;;;10.15;7.62;;;;;;;8.77;71.77;100536.77;1696153;84;21198;-43
2021/04/22 04:07:00;;;;;;;11.40;7.80;;;;;;;8.84;71.54;100534.65;1701681;82;21171;-43
2021/04/22 04:09:27;;;;;;;9.80;8.28;;;;;;;8.90;71.36;100542.34;1678603;84;21148;-43
2021/04/22 04:11:56;;;;;;;9.48;7.85;;;;;;;8.95;71.20;100541.63;1665411;84;21503;-51
2021/04/22 04:14:24;;;;;;;9.75;7.87;;;;;;;9.00;70.96;100541.41;1689684;84;21586;-41
2021/04/22 04:16:51;;;;;;;9.58;7.80;;;;;;;9.05;70.85;100542.88;1694499;83;21185;-42
2021/04/22 04:19:19;;;;;;;9.18;8.20;;;;;;;9.10;70.70;100543.98;1693115;83;21165;-43
2021/04/22 04:21:47;;;;;;;10.25;8.15;;;;;;;9.16;70.40;100556.10;1683419;84;21173;-41
2021/04/22 04:24:15;;;;;;;11.03;8.00;;;;;;;9.22;70.18;100560.65;1684284;83;21917;-41
2021/04/22 04:26:43;;;;;;;11.15;8.08;;;;;;;9.27;69.98;100559.94;1714756;82;21184;-42
2021/04/22 04:29:11;;;;;;;9.60;7.75;;;;;;;9.34;69.86;100563.13;1697233;83;21203;-44
2021/04/22 04:31:39;;;;;;;8.40;7.58;;;;;;;9.41;69.66;100550.38;1719455;83;21129;-44
2021/04/22 04:34:07;;;;;;;8.93;8.03;;;;;;;9.48;69.59;100560.61;1711859;82;21217;-44
2021/04/22 04:36:35;;;;;;;9.83;7.70;;;;;;;9.56;69.35;100554.88;1696146;83;21144;-50
2021/04/22 04:39:03;;;;;;;10.53;7.62;;;;;;;9.64;69.02;100559.32;1708789;83;21156;-43
2021/04/22 04:41:31;;;;;;;8.93;8.00;;;;;;;9.70;68.95;100567.44;1697898;83;21187;-53
2021/04/22 04:43:58;;;;;;;9.10;8.20;;;;;;;9.77;68.79;100564.84;1702876;82;21199;-45
2021/04/22 04:46:26;;;;;;;10.13;8.65;;;;;;;9.83;68.64;100564.53;1703040;82;21160;-44
2021/04/22 04:48:54;;;;;;;9.75;8.63;;;;;;;9.90;68.50;100575.25;1701775;82;21218;-44
2021/04/22 04:51:26;;;;;;;9.78;8.75;;;;;;;9.96;68.32;100574.05;1699981;83;21248;-45
2021/04/22 04:53:56;;;;;;;11.12;8.53;;;;;;;10.01;67.99;100570.66;1695455;82;21299;-46
2021/04/22 04:56:23;;;;;;;10.13;8.08;;;;;;;10.07;67.71;100576.12;1700610;82;21164;-45
2021/04/22 04:58:53;;;;;;;13.25;9.33;;;;;;;10.12;67.50;100578.91;1705869;82;21187;-51
2021/04/22 05:01:21;;;;;;;9.73;8.03;;;;;;;10.17;67.40;100571.52;1699582;82;21718;-43
2021/04/22 05:03:49;;;;;;;10.40;8.85;;;;;;;10.23;67.21;100570.34;1688536;82;21187;-43
2021/04/22 05:06:17;;;;;;;9.33;8.18;;;;;;;10.29;67.03;100575.83;1700365;83;21644;-44
2021/04/22 05:08:44;;;;;;;9.45;8.05;;;;;;;10.35;66.86;100579.47;1687920;83;21177;-44
2021/04/22 05:11:13;;;;;;;10.00;8.15;;;;;;;10.39;66.89;100583.70;1723794;81;21130;-45
2021/04/22 05:13:40;;;;;;;8.55;7.30;;;;;;;10.44;66.81;100579.45;1714674;82;21172;-48
2021/04/22 05:16:08;;;;;;;9.33;7.40;;;;;;;10.49;66.67;100584.91;1716401;81;21189;-41
2021/04/22 05:18:36;;;;;;;8.55;7.47;;;;;;;10.55;66.66;100588.54;1712907;82;21168;-45
2021/04/22 05:21:04;;;;;;;10.35;8.58;;;;;;;10.60;66.51;100586.95;1702833;82;21191;-45
2021/04/22 05:23:32;;;;;;;9.53;8.13;;;;;;;10.66;66.32;100599.95;1690273;83;21188;-46
2021/04/22 05:25:59;;;;;;;9.88;7.97;;;;;;;10.70;66.36;100591.29;1693065;83;21153;-57
2021/04/22 05:28:27;;;;;;;9.80;8.80;;;;;;;10.76;66.30;100584.26;1693054;82;21163;-41
2021/04/22 05:30:55;;;;;;;9.15;8.05;;;;;;;10.81;66.11;100580.88;1698285;82;21139;-45
2021/04/22 05:33:22;;;;;;;10.10;7.87;;;;;;;10.87;66.05;100575.66;1706563;82;21180;-44
2021/04/22 05:35:50;;;;;;;9.38;7.87;;;;;;;10.92;65.97;100574.44;1696403;82;21192;-44
2021/04/22 05:38:18;;;;;;;8.65;7.40;;;;;;;10.96;65.76;100582.66;1714751;82;21187;-44
2021/04/22 05:40:46;;;;;;;11.30;7.87;;;;;;;11.02;65.72;100577.42;1703200;82;21218;-44
2021/04/22 05:43:14;;;;;;;8.75;7.30;;;;;;;11.09;65.65;100576.57;1715163;82;21184;-43
2021/04/22 05:45:41;;;;;;;9.75;8.08;;;;;;;11.13;65.20;100582.98;1703087;83;22067;-44
2021/04/22 05:48:10;;;;;;;9.50;7.45;;;;;;;11.18;65.29;100590.23;1719003;81;21157;-44
2021/04/22 05:50:37;;;;;;;13.65;8.05;;;;;;;11.22;65.36;100586.92;1684213;83;21676;-44
2021/04/22 05:53:05;;;;;;;17.77;9.48;;;;;;;11.28;65.26;100591.03;1673127;84;21199;-43
2021/04/22 05:55:33;;;;;;;9.68;7.70;;;;;;;11.34;65.18;100579.52;1685832;82;21172;-42
2021/04/22 05:58:01;;;;;;;9.08;7.20;;;;;;;11.41;64.96;100589.34;1713531;81;21153;-47
2021/04/22 06:00:29;;;;;;;9.10;6.25;;;;;;;11.47;64.78;100587.65;1704273;82;21187;-49
2021/04/22 06:02:57;;;;;;;10.00;7.40;;;;;;;11.55;64.90;100582.70;1693863;82;21173;-48
2021/04/22 06:05:26;;;;;;;9.15;7.12;;;;;;;11.66;64.90;100582.03;1697017;83;21236;-46
2021/04/22 06:07:54;;;;;;;8.35;6.55;;;;;;;11.76;64.67;100576.98;1699894;83;21197;-45
2021/04/22 06:10:22;;;;;;;8.23;6.37;;;;;;;11.86;64.51;100571.45;1694727;82;21216;-46
2021/04/22 06:12:50;;;;;;;7.72;6.90;;;;;;;11.96;64.17;100574.44;1694405;82;21140;-47
2021/04/22 06:15:19;;;;;;;7.85;7.05;;;;;;;12.05;63.95;100570.72;1704562;82;21196;-46
2021/04/22 06:17:46;;;;;;;8.05;5.78;;;;;;;12.16;63.63;100572.70;1701666;82;21161;-48
2021/04/22 06:20:19;;;;;;;9.63;6.40;;;;;;;12.25;63.28;100581.48;1694536;82;21267;-46
2021/04/22 06:22:48;;;;;;;7.08;5.65;;;;;;;12.34;62.57;100576.02;1700462;82;21200;-46
2021/04/22 06:25:20;;;;;;;6.28;5.65;;;;;;;12.41;62.28;100579.16;1676011;82;21172;-47
2021/04/22 06:27:52;;;;;;;7.30;6.12;;;;;;;12.46;62.16;100572.55;1704377;82;21632;-47
2021/04/22 06:30:25;;;;;;;8.28;5.47;;;;;;;12.52;61.96;100576.63;1716032;81;21205;-43
2021/04/22 06:32:52;;;;;;;7.25;6.20;;;;;;;12.58;61.38;100579.41;1691804;82;21197;-44
2021/04/22 06:35:20;;;;;;;6.50;5.40;;;;;;;12.66;61.61;100577.09;1695262;82;21177;-44
2021/04/22 06:37:48;;;;;;;6.92;5.75;;;;;;;12.74;60.99;100572.08;1696363;82;21146;-44
2021/04/22 06:40:19;;;;;;;9.30;6.30;;;;;;;12.80;60.72;100574.37;1695905;83;21177;-45
2021/04/22 06:42:50;;;;;;;7.53;6.08;;;;;;;12.86;60.88;100572.61;1700859;82;21184;-43
2021/04/22 06:45:18;;;;;;;8.05;6.62;;;;;;;12.93;60.85;100575.75;1700473;82;21714;-44
2021/04/22 06:47:49;;;;;;;6.33;5.72;;;;;;;13.00;60.64;100567.66;1702452;82;21140;-45
2021/04/22 06:50:21;;;;;;;7.33;6.00;;;;;;;13.07;60.31;100577.48;1694138;82;21170;-46
2021/04/22 06:52:49;;;;;;;7.03;6.00;;;;;;;13.14;60.17;100573.44;1703947;82;21172;-46
2021/04/22 06:55:19;;;;;;;6.12;5.37;;;;;;;13.23;59.68;100571.48;1704132;82;21204;-47
2021/04/22 06:57:50;;;;;;;6.90;5.55;;;;;;;13.32;59.22;100574.03;1691469;82;21308;-52
2021/04/22 07:00:20;;;;;;;6.58;5.90;;;;;;;13.41;59.27;100572.07;1677677;84;21189;-46
2021/04/22 07:02:50;;;;;;;9.05;6.37;;;;;;;13.50;58.99;100578.60;1686220;83;21184;-46
2021/04/22 07:05:18;;;;;;;7.33;6.10;;;;;;;13.57;58.41;100575.87;1716250;82;21192;-47
2021/04/22 07:07:45;;;;;;;7.58;6.20;;;;;;;13.64;58.02;100576.69;1691535;83;21276;-46
2021/04/22 07:10:14;;;;;;;6.40;5.65;;;;;;;13.72;57.71;100576.64;1712568;82;21168;-44
2021/04/22 07:12:43;;;;;;;9.23;5.55;;;;;;;13.81;57.05;100576.00;1699704;82;21129;-47
2021/04/22 07:15:12;;;;;;;7.67;5.78;;;;;;;13.89;56.81;100570.95;1676228;83;21429;-46
2021/04/22 07:17:41;;;;;;;6.25;4.70;;;;;;;13.96;55.68;100576.25;1718955;81;21656;-46
2021/04/22 07:20:20;;;;;;;7.30;4.47;;;;;;;14.04;55.46;100574.36;1705375;82;21776;-43
2021/04/22 07:23:34;;;;;;;5.55;4.45;;;;;;;14.11;55.05;100568.94;1616177;85;21562;-46
2021/04/22 07:26:02;;;;;;;4.87;4.17;;;;;;;14.19;54.56;100572.41;1636066;85;21208;-44
2021/04/22 07:28:30;;;;;;;5.47;4.15;;;;;;;14.27;54.42;100578.06;1619491;87;21182;-46
2021/04/22 07:31:00;;;;;;;4.80;4.10;;;;;;;14.36;53.78;100576.53;1665626;84;21185;-45
2021/04/22 07:33:28;;;;;;;5.92;4.10;;;;;;;14.41;53.44;100572.56;1672276;83;21173;-45
2021/04/22 07:35:56;;;;;;;5.25;3.87;;;;;;;14.49;52.91;100580.05;1672648;83;21217;-44
2021/04/22 07:38:41;;;;;;;4.95;4.10;;;;;;;14.55;52.94;100576.09;1667660;83;21677;-46
2021/04/22 07:41:34;;;;;;;7.30;4.17;;;;;;;14.61;52.47;100579.64;1660063;83;21222;-45
2021/04/22 07:44:03;;;;;;;5.92;4.45;;;;;;;14.69;52.15;100571.88;1682294;83;21169;-47
2021/04/22 07:46:31;;;;;;;4.37;3.83;;;;;;;14.76;51.02;100570.95;1679303;83;21629;-46
2021/04/22 07:48:59;;;;;;;6.30;3.70;;;;;;;14.82;51.65;100572.70;1661139;83;21484;-47
2021/04/22 07:51:27;;;;;;;5.00;3.77;;;;;;;14.89;51.71;100571.73;1664701;83;21169;-44
2021/04/22 07:53:56;;;;;;;4.50;3.35;;;;;;;14.96;51.87;100568.11;1672490;84;21368;-46
2021/04/22 07:56:25;;;;;;;5.05;3.87;;;;;;;15.06;51.32;100567.78;1666377;83;21165;-46
2021/04/22 07:58:56;;;;;;;;;;;;;;;15.13;50.45;100559.14;1663280;83;21649;-44
2021/04/22 08:01:25;;;;;;;4.72;4.15;;;;;;;15.21;49.80;100563.92;1663149;84;20294;-46
2021/04/22 08:04:00;;;;;;;5.30;3.87;;;;;;;15.31;49.54;100555.53;1798510;77;22219;-39
2021/04/22 08:06:28;;;;;;;6.30;3.72;;;;;;;15.34;49.31;100567.38;1767168;79;21144;-42
2021/04/22 08:08:57;;;;;;;4.92;3.40;;;;;;;15.41;49.02;100569.11;1770775;79;21152;-44
2021/04/22 08:11:25;;;;;;;7.17;3.60;;;;;;;15.46;48.40;100553.48;1764146;79;21156;-49
2021/04/22 08:13:52;;;;;;;4.20;3.50;;;;;;;15.52;48.63;100561.09;1768666;79;21156;-47
2021/04/22 08:16:20;;;;;;;5.47;3.85;;;;;;;15.59;48.67;100558.76;1764779;79;21177;-46
2021/04/22 08:18:48;;;;;;;6.22;3.67;;;;;;;15.66;48.61;100561.34;1766184;79;21157;-46
2021/04/22 08:21:16;;;;;;;5.17;3.45;;;;;;;15.71;48.47;100564.55;1766216;79;21141;-45
2021/04/22 08:23:44;;;;;;;4.70;3.30;;;;;;;15.78;47.79;100559.06;1763950;79;21628;-46
2021/04/22 08:28:53;;;;;;;5.03;3.42;;;;;;;15.91;47.31;100551.38;1806497;77;22943;-48
2021/04/22 08:31:25;;;;;;;8.23;3.83;;;;;;;15.93;47.74;100559.69;1783522;78;21132;-45
2021/04/22 08:33:57;;;;;;;6.47;4.22;;;;;;;15.98;48.10;100564.70;1785927;78;21113;-43
2021/04/22 08:36:25;;;;;;;6.42;3.90;;;;;;;16.05;46.66;100559.20;1780130;78;22014;-44
2021/04/22 08:38:53;;;;;;;5.92;4.28;;;;;;;16.12;45.54;100556.36;1782585;78;21117;-46
2021/04/22 08:41:21;;;;;;;4.70;3.65;;;;;;;16.17;46.17;100562.22;1785800;78;21583;-45
2021/04/22 08:43:49;;;;;;;8.58;3.58;;;;;;;16.23;46.61;100546.95;1788734;78;21131;-49
2021/04/22 08:46:18;;;;;;;6.70;4.58;;;;;;;16.30;46.52;100554.51;1783666;78;21582;-50
2021/04/22 08:48:46;;;;;;;4.53;4.08;;;;;;;16.36;46.35;100566.14;1788543;78;21159;-50
2021/04/22 08:51:14;;;;;;;4.25;3.25;;;;;;;16.38;46.46;100559.64;1784101;78;21123;-43
2021/04/22 08:53:44;;;;;;;4.22;3.12;;;;;;;16.42;46.32;100561.59;1782895;78;21154;-53
2021/04/22 08:56:13;;;;;;;4.22;3.75;;;;;;;16.44;46.37;100556.94;1789731;78;21147;-52
2021/04/22 08:58:42;;;;;;;6.42;3.67;;;;;;;16.48;46.17;100551.68;1784403;78;21131;-42
2021/04/22 09:01:15;;;;;;;4.12;3.72;;;;;;;16.52;45.60;100555.81;1787795;78;21099;-47
2021/04/22 09:03:44;;;;;;;4.20;3.47;;;;;;;16.57;45.95;100548.21;1785351;78;21131;-44
2021/04/22 09:06:13;;;;;;;6.85;4.50;;;;;;;16.61;46.21;100542.10;1757227;80;21860;-45
2021/04/22 09:08:50;;;;;;;7.17;4.60;;;;;;;16.68;45.48;100546.47;1731358;81;21121;-45
2021/04/22 09:11:22;;;;;;;5.40;3.65;;;;;;;16.71;45.57;100549.78;1733727;81;21168;-44
2021/04/22 09:13:50;;;;;;;5.87;4.15;;;;;;;16.75;46.17;100549.86;1729897;81;21149;-47
2021/04/22 09:16:22;;;;;;;5.28;3.87;;;;;;;16.80;45.78;100551.71;1728943;81;21153;-46
2021/04/22 09:18:52;;;;;;;4.60;3.80;;;;;;;16.84;45.04;100541.06;1756448;80;21111;-47
2021/04/22 09:21:29;;;;;;;4.78;3.80;;;;;;;16.88;44.68;100540.30;1726257;81;21194;-46
2021/04/22 09:24:10;;;;;;;4.60;3.45;;;;;;;16.92;44.12;100538.22;1727984;81;21188;-47
2021/04/22 09:26:45;;;;;;;5.62;4.53;;;;;;;16.99;43.84;100542.11;1728314;81;21534;-45
2021/04/22 09:29:17;;;;;;;6.62;3.75;;;;;;;17.06;43.43;100541.46;1727469;81;21164;-49
2021/04/22 09:31:44;;;;;;;5.92;3.83;;;;;;;17.13;43.57;100539.08;1726151;81;21656;-45
2021/04/22 09:34:15;;;;;;;6.05;4.62;;;;;;;17.17;43.81;100539.70;1729558;81;21133;-44
2021/04/22 09:36:53;;;;;;;5.47;4.33;;;;;;;17.20;43.59;100528.65;1728047;81;21573;-46
2021/04/22 09:39:27;;;;;;;7.17;4.10;;;;;;;17.23;43.42;100530.57;1727346;81;21170;-50
2021/04/22 09:42:02;;;;;;;6.15;3.80;;;;;;;17.27;43.24;100536.57;1727260;81;21161;-48
2021/04/22 09:44:30;;;;;;;5.12;3.58;;;;;;;17.27;42.44;100536.08;1726228;81;21148;-48
2021/04/22 09:47:17;;;;;;;5.37;3.95;;;;;;;17.25;42.79;100523.72;1730935;81;21648;-47
2021/04/22 09:49:56;;;;;;;7.83;3.58;;;;;;;17.21;42.64;100532.57;1729422;81;21252;-49
2021/04/22 09:52:22;;;;;;;5.70;4.28;;;;;;;17.19;42.76;100529.64;1732409;81;21165;-47
2021/04/22 09:54:53;;;;;;;6.75;4.08;;;;;;;17.16;42.96;100525.37;1731017;81;21566;-46
2021/04/22 09:57:34;;;;;;;6.50;4.00;;;;;;;17.16;43.99;100520.45;1732317;81;21152;-47
2021/04/22 10:00:13;;;;;;;4.80;3.60;;;;;;;17.12;43.48;100514.98;1726793;81;21113;-46
2021/04/22 10:02:57;;;;;;;6.00;4.40;;;;;;;17.09;42.67;100516.10;1727477;81;21196;-48
2021/04/22 10:05:30;;;;;;;5.00;4.17;;;;;;;17.07;42.21;100513.52;1729281;81;21180;-47
2021/04/22 10:08:15;;;;;;;6.62;4.15;;;;;;;17.09;42.33;100511.56;1728148;81;21137;-47
2021/04/22 10:11:03;;;;;;;8.88;4.35;;;;;;;17.13;42.61;100516.69;1729992;81;21152;-47
2021/04/22 10:13:47;;;;;;;3.83;3.22;;;;;;;17.18;42.58;100512.59;1750818;80;21186;-48
2021/04/22 10:16:16;;;;;;;3.98;3.30;;;;;;;17.25;42.64;100508.90;1757694;80;21526;-47
2021/04/22 10:18:45;;;;;;;6.33;4.00;;;;;;;17.35;42.78;100512.50;1729999;81;21165;-47
2021/04/22 10:21:13;;;;;;;8.05;5.75;;;;;;;17.43;42.15;100514.03;1734774;81;21141;-47
2021/04/22 10:23:40;;;;;;;6.20;4.05;;;;;;;17.49;42.05;100513.52;1727021;81;21142;-47
2021/04/22 10:26:20;;;;;;;7.55;4.10;;;;;;;17.52;41.89;100499.77;1729352;81;21158;-46
2021/04/22 10:28:48;;;;;;;4.55;3.08;;;;;;;17.53;41.74;100509.55;1718155;81;21165;-48
2021/04/22 10:31:16;;;;;;;3.85;3.33;;;;;;;17.57;41.33;100521.44;1714798;82;21141;-46
2021/04/22 10:33:43;;;;;;;4.37;3.12;;;;;;;17.55;40.60;100514.82;1772634;79;21496;-46
2021/04/22 10:36:12;;;;;;;6.05;3.65;;;;;;;17.54;40.76;100511.78;1745401;79;21681;-48
2021/04/22 10:38:40;;;;;;;4.42;3.05;;;;;;;17.50;40.90;100515.22;1771833;79;21178;-47
2021/04/22 10:41:07;;;;;;;5.42;3.87;;;;;;;17.49;41.12;100516.22;1776357;79;21147;-46
2021/04/22 10:43:35;;;;;;;3.42;2.75;;;;;;;17.49;39.84;100516.22;1776175;79;21151;-43
2021/04/22 10:46:03;;;;;;;3.52;2.17;;;;;;;17.47;40.20;100527.63;1708665;82;21165;-52
2021/04/22 10:48:31;;;;;;;3.17;2.60;;;;;;;17.45;40.77;100522.84;1776419;79;21657;-46
2021/04/22 10:50:59;;;;;;;3.52;2.80;;;;;;;17.44;41.27;100512.22;1775521;79;21139;-49
2021/04/22 10:53:27;;;;;;;4.30;3.22;;;;;;;17.46;41.44;100508.41;1748388;79;21154;-47
2021/04/22 10:55:55;;;;;;;4.45;2.62;;;;;;;17.53;41.50;100510.90;1718497;82;21669;-48
2021/04/22 10:58:40;;;;;;;3.87;2.50;;;;;;;17.61;39.04;100507.53;1776454;79;21147;-47
2021/04/22 11:01:10;;;;;;;2.87;2.58;;;;;;;17.66;38.64;100505.28;1775933;79;21156;-43
2021/04/22 11:03:46;;;;;;;4.20;2.83;;;;;;;17.69;38.61;100496.95;1780331;79;21137;-43
2021/04/22 11:06:21;;;;;;;4.78;2.45;;;;;;;17.71;38.57;100501.72;1773192;79;21125;-43
2021/04/22 11:08:51;;;;;;;2.65;2.33;;;;;;;17.72;38.88;100502.56;1771423;79;21143;-42
2021/04/22 11:11:25;;;;;;;3.47;2.65;;;;;;;17.73;39.45;100500.22;1777914;79;21132;-42
2021/04/22 11:14:14;;;;;;;6.12;2.90;;;;;;;17.76;40.08;100490.50;1773452;79;21128;-43
2021/04/22 11:16:54;;;;;;;3.85;3.33;;;;;;;17.83;40.03;100486.30;1780072;79;21167;-44
2021/04/22 11:19:24;;;;;;;4.08;3.17;;;;;;;17.91;38.99;100486.47;1776562;79;21146;-42
2021/04/22 11:22:04;;;;;;;5.15;3.70;;;;;;;17.94;39.60;100479.48;1769958;79;21662;-41
2021/04/22 11:24:39;;;;;;;5.53;3.10;;;;;;;17.99;39.74;100478.19;1752828;79;21138;-42
2021/04/22 11:27:11;;;;;;;4.33;3.30;;;;;;;18.01;40.05;100470.82;1777190;79;22030;-42
2021/04/22 11:29:51;;;;;;;5.50;3.37;;;;;;;18.06;39.28;100468.56;1763956;79;21156;-44
2021/04/22 11:32:29;;;;;;;4.67;2.90;;;;;;;18.09;38.59;100462.41;1761740;79;21148;-41
2021/04/22 11:35:16;;;;;;;5.72;3.62;;;;;;;18.16;38.12;100460.84;1765554;79;21820;-42
2021/04/22 11:37:58;;;;;;;3.85;2.87;;;;;;;18.21;38.13;100451.48;1765374;79;21160;-42
2021/04/22 11:40:38;;;;;;;3.40;2.50;;;;;;;18.24;38.34;100452.55;1759359;79;21142;-44
2021/04/22 11:43:20;;;;;;;4.25;2.85;;;;;;;18.28;38.47;100443.19;1768709;79;21687;-42
2021/04/22 11:45:52;;;;;;;5.03;3.27;;;;;;;18.30;37.99;100447.95;1765067;79;21145;-42